createdAt,value
2019-02-05T00:02:16.956Z,5.17
2019-02-05T00:04:50.289Z,5.53
2019-02-05T00:07:23.735Z,5.60
2019-02-05T00:09:57.156Z,5.80
2019-02-05T00:12:30.519Z,5.90
2019-02-05T00:15:05.813Z,5.93
2019-02-05T00:17:39.238Z,5.77
2019-02-05T00:20:13.005Z,5.77
2019-02-05T00:22:46.433Z,5.90
2019-02-05T00:25:19.855Z,5.53
2019-02-05T00:27:53.299Z,6.00
2019-02-05T00:30:26.708Z,6.07
2019-02-05T00:33:00.126Z,6.40
2019-02-05T00:35:33.531Z,5.50
2019-02-05T00:38:06.963Z,6.40
2019-02-05T00:40:40.388Z,6.10
2019-02-05T00:43:13.791Z,6.50
2019-02-05T00:45:47.243Z,5.90
2019-02-05T00:48:20.596Z,6.30
2019-02-05T00:50:54.023Z,6.00
2019-02-05T00:53:27.694Z,6.67
2019-02-05T00:56:01.016Z,6.40
2019-02-05T00:58:34.383Z,6.37
2019-02-05T01:01:07.984Z,5.47
2019-02-05T01:03:41.404Z,6.47
2019-02-05T01:06:14.717Z,6.30
2019-02-05T01:08:48.133Z,6.90
2019-02-05T01:11:21.478Z,6.27
2019-02-05T01:13:54.820Z,6.53
2019-02-05T01:16:28.336Z,6.73
2019-02-05T01:19:01.680Z,7.63
2019-02-05T01:21:35.081Z,6.90
2019-02-05T01:24:08.508Z,7.90
2019-02-05T01:26:41.837Z,8.17
2019-02-05T01:29:15.180Z,8.30
2019-02-05T01:31:48.506Z,7.83
2019-02-05T01:34:21.856Z,8.20
2019-02-05T01:36:55.253Z,9.20
2019-02-05T01:39:28.612Z,9.00
2019-02-05T01:42:01.936Z,9.20
2019-02-05T01:44:35.345Z,9.57
2019-02-05T01:47:08.677Z,9.80
2019-02-05T01:49:42.418Z,10.23
2019-02-05T01:52:15.911Z,9.93
2019-02-05T01:54:49.434Z,9.83
2019-02-05T01:57:22.916Z,10.80
2019-02-05T01:59:56.318Z,11.37
2019-02-05T02:02:29.752Z,12.47
2019-02-05T02:05:03.729Z,11.63
2019-02-05T02:07:37.159Z,13.37
2019-02-05T02:10:19.141Z,12.77
2019-02-05T02:12:52.619Z,13.17
2019-02-05T02:15:26.025Z,13.03
2019-02-05T02:17:59.448Z,15.13
2019-02-05T02:20:32.839Z,13.77
2019-02-05T02:23:06.338Z,13.83
2019-02-05T02:25:39.687Z,12.60
2019-02-05T02:28:13.101Z,12.17
2019-02-05T02:30:46.425Z,14.40
2019-02-05T02:33:20.309Z,14.47
2019-02-05T02:35:53.633Z,14.03
2019-02-05T02:38:27.089Z,15.73
2019-02-05T02:41:00.423Z,13.97
2019-02-05T02:43:33.796Z,13.13
2019-02-05T02:46:07.251Z,15.87
2019-02-05T02:48:40.624Z,14.83
2019-02-05T02:51:13.977Z,15.43
2019-02-05T02:53:47.399Z,14.20
2019-02-05T02:56:21.001Z,15.20
2019-02-05T02:58:54.434Z,15.37
2019-02-05T03:01:27.835Z,15.43
2019-02-05T03:04:01.183Z,16.40
2019-02-05T03:06:34.600Z,15.70
2019-02-05T03:09:09.758Z,16.37
2019-02-05T03:11:43.156Z,16.17
2019-02-05T03:14:16.506Z,14.90
2019-02-05T03:16:49.843Z,15.03
2019-02-05T03:19:23.282Z,18.80
2019-02-05T03:21:56.676Z,15.23
2019-02-05T03:24:30.064Z,16.43
2019-02-05T03:27:03.593Z,17.57
2019-02-05T03:29:36.936Z,17.07
2019-02-05T03:32:10.356Z,18.57
2019-02-05T03:34:43.678Z,15.97
2019-02-05T03:37:17.061Z,16.63
2019-02-05T03:39:50.451Z,17.17
2019-02-05T03:42:23.803Z,18.27
2019-02-05T03:44:57.553Z,17.73
2019-02-05T03:47:31.002Z,17.13
2019-02-05T03:50:05.570Z,17.47
2019-02-05T03:52:42.236Z,18.57
2019-02-05T03:55:36.741Z,20.20
2019-02-05T03:58:15.980Z,20.77
2019-02-05T04:00:52.489Z,23.63
2019-02-05T04:03:29.302Z,19.33
2019-02-05T04:06:15.000Z,20.90
2019-02-05T04:08:57.510Z,19.90
2019-02-05T04:12:06.139Z,22.00
2019-02-05T04:15:09.535Z,20.77
2019-02-05T04:17:51.781Z,21.40
2019-02-05T04:20:43.512Z,23.57
2019-02-05T04:23:20.055Z,22.20
2019-02-05T04:26:11.919Z,22.37
2019-02-05T04:28:54.733Z,22.07
2019-02-05T04:31:53.719Z,22.07
2019-02-05T04:34:42.516Z,23.80
2019-02-05T04:37:38.818Z,24.50
2019-02-05T04:40:44.027Z,24.07
2019-02-05T04:43:29.666Z,23.17
2019-02-05T04:46:09.240Z,22.17
2019-02-05T04:49:14.843Z,22.87
2019-02-05T04:52:03.830Z,24.73
2019-02-05T04:55:08.453Z,23.87
2019-02-05T04:58:13.767Z,24.57
2019-02-05T05:01:25.176Z,24.03
2019-02-05T05:04:10.778Z,23.07
2019-02-05T05:06:53.373Z,25.77
2019-02-05T05:09:32.825Z,25.80
2019-02-05T05:12:06.260Z,25.67
2019-02-05T05:14:39.685Z,30.77
2019-02-05T05:17:13.113Z,24.87
2019-02-05T05:19:46.960Z,30.03
2019-02-05T05:22:20.412Z,26.20
2019-02-05T05:24:54.254Z,25.03
2019-02-05T05:27:28.024Z,29.07
2019-02-05T05:30:01.628Z,25.20
2019-02-05T05:32:35.033Z,24.70
2019-02-05T05:35:09.836Z,27.70
2019-02-05T05:37:43.165Z,27.77
2019-02-05T05:40:16.701Z,29.07
2019-02-05T05:42:50.061Z,24.50
2019-02-05T05:45:23.521Z,27.27
2019-02-05T05:47:56.851Z,23.63
2019-02-05T05:50:30.219Z,25.43
2019-02-05T05:53:04.140Z,26.83
2019-02-05T05:55:37.519Z,27.70
2019-02-05T05:58:21.900Z,25.87
2019-02-05T06:00:46.067Z,25.03
2019-02-05T06:03:19.847Z,26.90
2019-02-05T06:05:53.273Z,26.30
2019-02-05T06:08:26.600Z,28.33
2019-02-05T06:11:00.011Z,25.90
2019-02-05T06:13:33.407Z,28.47
2019-02-05T06:16:06.838Z,28.00
2019-02-05T06:18:40.242Z,26.43
2019-02-05T06:21:13.894Z,30.43
2019-02-05T06:23:47.258Z,29.60
2019-02-05T06:26:20.693Z,25.73
2019-02-05T06:28:54.099Z,27.90
2019-02-05T06:31:27.494Z,32.37
2019-02-05T06:34:00.958Z,29.87
2019-02-05T06:36:34.344Z,26.73
2019-02-05T06:39:08.347Z,31.10
2019-02-05T06:41:41.798Z,29.83
2019-02-05T06:44:15.218Z,32.73
2019-02-05T06:46:48.610Z,27.83
2019-02-05T06:49:21.971Z,26.73
2019-02-05T06:51:55.325Z,24.67
2019-02-05T06:54:28.776Z,23.87
2019-02-05T06:57:02.100Z,24.90
2019-02-05T06:59:35.454Z,25.93
2019-02-05T07:02:09.600Z,26.47
2019-02-05T07:04:42.986Z,24.10
2019-02-05T07:07:16.315Z,26.63
2019-02-05T07:09:49.673Z,30.40
2019-02-05T07:12:23.090Z,31.60
2019-02-05T07:14:56.520Z,27.10
2019-02-05T07:17:29.846Z,32.33
2019-02-05T07:20:03.751Z,29.33
2019-02-05T07:22:37.178Z,30.73
2019-02-05T07:25:13.778Z,31.77
2019-02-05T07:27:47.246Z,30.90
2019-02-05T07:30:25.655Z,37.43
2019-02-05T07:32:59.057Z,27.63
2019-02-05T07:35:32.495Z,27.27
2019-02-05T07:38:06.264Z,30.07
2019-02-05T07:40:39.685Z,29.60
2019-02-05T07:43:13.156Z,19.40
2019-02-05T07:45:46.517Z,20.10
2019-02-05T07:48:19.911Z,19.80
2019-02-05T07:50:53.543Z,20.40
2019-02-05T07:53:26.878Z,20.27
2019-02-05T07:56:00.232Z,20.03
2019-02-05T07:58:33.622Z,19.97
2019-02-05T08:01:07.068Z,20.00
2019-02-05T08:03:40.534Z,16.90
2019-02-05T08:06:13.990Z,14.80
2019-02-05T08:08:47.457Z,18.87
2019-02-05T08:11:20.984Z,15.90
2019-02-05T08:13:54.388Z,15.33
2019-02-05T08:16:27.748Z,16.53
2019-02-05T08:19:01.081Z,17.47
2019-02-05T08:21:34.506Z,17.13
2019-02-05T08:24:07.832Z,16.23
2019-02-05T08:26:41.184Z,15.00
2019-02-05T08:29:21.694Z,15.47
2019-02-05T08:31:50.160Z,15.47
2019-02-05T08:34:23.522Z,15.47
2019-02-05T08:36:56.882Z,14.17
2019-02-05T08:39:30.209Z,13.80
2019-02-05T08:42:03.569Z,14.10
2019-02-05T08:44:36.960Z,16.47
2019-02-05T08:47:10.340Z,13.07
2019-02-05T08:49:43.682Z,10.53
2019-02-05T08:52:17.055Z,13.03
2019-02-05T08:54:50.403Z,13.90
2019-02-05T08:57:23.754Z,11.50
2019-02-05T08:59:57.162Z,12.93
2019-02-05T09:02:30.597Z,13.10
2019-02-05T09:05:05.389Z,12.87
2019-02-05T09:07:38.825Z,13.10
2019-02-05T09:10:29.878Z,13.30
2019-02-05T09:13:03.320Z,14.43
2019-02-05T09:15:37.184Z,12.80
2019-02-05T09:18:10.677Z,9.00
2019-02-05T09:20:43.996Z,7.73
2019-02-05T09:23:17.441Z,8.10
2019-02-05T09:25:50.826Z,8.67
2019-02-05T09:28:24.183Z,8.07
2019-02-05T09:30:57.511Z,11.17
2019-02-05T09:33:30.875Z,7.83
2019-02-05T09:36:04.343Z,8.83
2019-02-05T09:38:37.712Z,15.53
2019-02-05T09:41:11.093Z,14.83
2019-02-05T09:43:44.641Z,14.60
2019-02-05T09:46:18.059Z,15.73
2019-02-05T09:48:51.387Z,17.63
2019-02-05T09:51:25.000Z,16.40
2019-02-05T09:53:58.416Z,13.97
2019-02-05T09:56:31.780Z,14.43
2019-02-05T09:59:05.288Z,14.97
2019-02-05T10:01:38.795Z,14.73
2019-02-05T10:04:12.527Z,14.73
2019-02-05T10:06:45.988Z,14.27
2019-02-05T10:09:19.384Z,13.43
2019-02-05T10:11:52.734Z,13.20
2019-02-05T10:14:26.075Z,12.80
2019-02-05T10:16:59.826Z,13.37
2019-02-05T10:19:33.226Z,12.60
2019-02-05T10:22:06.591Z,14.43
2019-02-05T10:24:40.047Z,13.27
2019-02-05T10:27:13.487Z,12.93
2019-02-05T10:29:57.809Z,12.57
2019-02-05T10:32:21.899Z,13.77
2019-02-05T10:34:55.237Z,12.17
2019-02-05T10:37:28.618Z,11.53
2019-02-05T10:40:02.307Z,12.30
2019-02-05T10:42:35.697Z,12.07
2019-02-05T10:45:12.114Z,13.23
2019-02-05T10:47:45.544Z,12.70
2019-02-05T10:50:19.712Z,12.40
2019-02-05T10:52:53.246Z,13.53
2019-02-05T10:55:26.612Z,12.60
2019-02-05T10:57:59.970Z,13.13
2019-02-05T11:00:34.023Z,11.40
2019-02-05T11:03:08.604Z,11.53
2019-02-05T11:05:42.005Z,11.60
2019-02-05T11:08:15.438Z,11.40
2019-02-05T11:10:48.759Z,11.67
2019-02-05T11:13:22.199Z,11.47
2019-02-05T11:15:55.971Z,12.23
2019-02-05T11:18:29.505Z,11.57
2019-02-05T11:21:04.388Z,11.80
2019-02-05T11:23:38.127Z,11.13
2019-02-05T11:26:11.811Z,11.43
2019-02-05T11:28:45.230Z,10.77
2019-02-05T11:31:18.599Z,11.57
2019-02-05T11:33:51.995Z,10.80
2019-02-05T11:36:25.356Z,11.37
2019-02-05T11:38:58.792Z,10.90
2019-02-05T11:41:32.125Z,11.10
2019-02-05T11:44:05.538Z,11.40
2019-02-05T11:46:38.935Z,12.40
2019-02-05T11:49:12.296Z,10.70
2019-02-05T11:51:46.072Z,10.57
2019-02-05T11:54:19.518Z,11.47
2019-02-05T11:56:52.850Z,11.40
2019-02-05T11:59:26.282Z,11.10
2019-02-05T12:01:59.682Z,10.97
2019-02-05T12:04:33.328Z,10.73
2019-02-05T12:07:06.741Z,11.37
2019-02-05T12:09:40.377Z,11.57
2019-02-05T12:12:13.703Z,10.97
2019-02-05T12:14:50.214Z,11.57
2019-02-05T12:17:22.185Z,12.30
2019-02-05T12:19:55.826Z,11.80
2019-02-05T12:22:29.242Z,12.33
2019-02-05T12:25:02.689Z,11.20
2019-02-05T12:27:36.123Z,10.97
2019-02-05T12:30:21.218Z,11.63
2019-02-05T12:32:54.728Z,13.23
2019-02-05T12:35:28.350Z,11.73
2019-02-05T12:38:01.864Z,11.67
2019-02-05T12:40:35.631Z,11.50
2019-02-05T12:43:09.066Z,12.07
2019-02-05T12:45:42.486Z,13.50
2019-02-05T12:48:15.915Z,11.67
2019-02-05T12:50:49.703Z,12.50
2019-02-05T12:53:23.240Z,11.27
2019-02-05T12:55:56.634Z,11.20
2019-02-05T12:58:30.057Z,10.53
2019-02-05T13:01:03.523Z,10.70
2019-02-05T13:03:36.927Z,12.03
2019-02-05T13:06:10.348Z,73.00
2019-02-05T13:08:43.820Z,11.20
2019-02-05T13:11:17.267Z,12.23
2019-02-05T13:13:50.968Z,9.50
2019-02-05T13:16:24.374Z,10.07
2019-02-05T13:18:57.842Z,10.10
2019-02-05T13:21:31.164Z,10.97
2019-02-05T13:24:04.862Z,10.50
2019-02-05T13:26:38.207Z,9.90
2019-02-05T13:29:11.555Z,11.30
2019-02-05T13:31:44.883Z,10.83
2019-02-05T13:34:18.249Z,10.97
2019-02-05T13:36:51.575Z,12.80
2019-02-05T13:39:25.069Z,13.60
2019-02-05T13:41:58.503Z,12.13
2019-02-05T13:44:31.867Z,12.07
2019-02-05T13:47:05.362Z,14.17
2019-02-05T13:49:38.816Z,11.63
2019-02-05T13:52:12.218Z,13.57
2019-02-05T13:54:45.583Z,12.17
2019-02-05T13:57:18.986Z,12.50
2019-02-05T13:59:52.340Z,12.90
2019-02-05T14:02:25.681Z,12.57
2019-02-05T14:04:59.105Z,12.37
2019-02-05T14:07:32.438Z,12.50
2019-02-05T14:10:12.102Z,13.03
2019-02-05T14:12:45.514Z,12.20
2019-02-05T14:15:24.376Z,12.00
2019-02-05T14:17:57.864Z,13.27
2019-02-05T14:20:31.736Z,12.03
2019-02-05T14:23:05.292Z,11.90
2019-02-05T14:25:38.656Z,12.10
2019-02-05T14:28:11.981Z,11.87
2019-02-05T14:30:50.921Z,12.60
2019-02-05T14:33:24.305Z,12.20
2019-02-05T14:35:57.736Z,12.47
2019-02-05T14:38:31.136Z,12.33
2019-02-05T14:41:04.871Z,11.83
2019-02-05T14:43:38.195Z,13.67
2019-02-05T14:46:13.167Z,13.20
2019-02-05T14:48:46.768Z,12.80
2019-02-05T14:51:20.092Z,12.83
2019-02-05T14:53:53.518Z,12.00
2019-02-05T14:56:27.278Z,12.40
2019-02-05T14:59:00.653Z,12.63
2019-02-05T15:01:42.773Z,13.07
2019-02-05T15:04:09.685Z,12.83
2019-02-05T15:06:43.020Z,13.07
2019-02-05T15:09:16.470Z,12.33
2019-02-05T15:11:49.793Z,13.93
2019-02-05T15:14:23.225Z,42.17
2019-02-05T15:16:56.658Z,68.50
2019-02-05T15:19:30.142Z,22.20
2019-02-05T15:22:03.550Z,18.60
2019-02-05T15:24:38.926Z,35.27
2019-02-05T15:27:12.031Z,17.80
2019-02-05T15:29:45.403Z,13.23
2019-02-05T15:32:20.366Z,13.23
2019-02-05T15:34:53.829Z,13.07
2019-02-05T15:37:27.376Z,12.67
2019-02-05T15:40:00.803Z,12.77
2019-02-05T15:42:34.122Z,13.20
2019-02-05T15:45:09.528Z,14.23
2019-02-05T15:47:43.252Z,13.67
2019-02-05T15:50:16.948Z,13.50
2019-02-05T15:52:50.332Z,14.00
2019-02-05T15:55:23.823Z,12.50
2019-02-05T15:57:57.224Z,12.97
2019-02-05T16:00:30.690Z,12.87
2019-02-05T16:03:04.880Z,13.53
2019-02-05T16:05:38.412Z,14.10
2019-02-05T16:08:11.784Z,13.67
2019-02-05T16:10:45.499Z,14.07
2019-02-05T16:13:18.823Z,14.67
2019-02-05T16:15:52.175Z,14.50
2019-02-05T16:18:25.579Z,13.37
2019-02-05T16:20:59.006Z,14.00
2019-02-05T16:23:32.345Z,15.47
2019-02-05T16:26:05.855Z,14.43
2019-02-05T16:28:39.323Z,15.40
2019-02-05T16:31:12.773Z,20.23
2019-02-05T16:33:46.175Z,20.27
2019-02-05T16:36:19.571Z,22.90
2019-02-05T16:38:52.965Z,23.23
2019-02-05T16:41:26.396Z,22.07
2019-02-05T16:43:59.733Z,24.00
2019-02-05T16:46:33.131Z,22.13
2019-02-05T16:49:06.518Z,21.47
2019-02-05T16:51:39.942Z,23.10
2019-02-05T16:54:13.407Z,22.80
2019-02-05T16:56:47.040Z,23.17
2019-02-05T16:59:20.380Z,22.70
2019-02-05T17:01:53.779Z,22.83
2019-02-05T17:04:27.173Z,22.20
2019-02-05T17:07:00.591Z,23.70
2019-02-05T17:09:33.988Z,23.80
2019-02-05T17:12:07.418Z,24.27
2019-02-05T17:14:40.775Z,27.17
2019-02-05T17:17:14.206Z,26.60
2019-02-05T17:19:47.832Z,24.30
2019-02-05T17:22:21.270Z,24.77
2019-02-05T17:24:54.596Z,25.60
2019-02-05T17:27:28.035Z,23.17
2019-02-05T17:30:01.875Z,29.07
2019-02-05T17:32:40.242Z,25.40
2019-02-05T17:35:10.746Z,24.67
2019-02-05T17:37:44.209Z,28.33
2019-02-05T17:40:19.601Z,29.87
2019-02-05T17:42:54.212Z,27.67
2019-02-05T17:45:30.877Z,27.90
2019-02-05T17:48:07.469Z,27.93
2019-02-05T17:50:41.007Z,27.13
2019-02-05T17:53:14.440Z,30.70
2019-02-05T17:55:47.851Z,30.60
2019-02-05T17:58:21.248Z,26.83
2019-02-05T18:00:56.285Z,33.90
2019-02-05T18:03:29.739Z,29.63
2019-02-05T18:06:03.239Z,29.73
2019-02-05T18:08:36.612Z,29.10
2019-02-05T18:11:10.035Z,31.17
2019-02-05T18:13:43.848Z,37.10
2019-02-05T18:16:17.339Z,27.17
2019-02-05T18:18:50.691Z,33.10
2019-02-05T18:21:24.088Z,31.60
2019-02-05T18:23:57.463Z,28.80
2019-02-05T18:26:30.859Z,31.20
2019-02-05T18:29:04.284Z,29.53
2019-02-05T18:31:37.643Z,27.50
2019-02-05T18:34:10.961Z,39.70
2019-02-05T18:36:44.704Z,28.13
2019-02-05T18:39:18.039Z,27.43
2019-02-05T18:41:51.475Z,29.37
2019-02-05T18:44:24.927Z,31.43
2019-02-05T18:46:58.289Z,27.90
2019-02-05T18:49:31.630Z,29.40
2019-02-05T18:52:05.111Z,25.93
2019-02-05T18:54:38.512Z,31.53
2019-02-05T18:57:12.123Z,25.17
2019-02-05T18:59:45.916Z,25.53
2019-02-05T19:02:19.420Z,27.70
2019-02-05T19:04:52.823Z,24.80
2019-02-05T19:07:26.348Z,26.30
2019-02-05T19:09:59.737Z,31.97
2019-02-05T19:12:33.102Z,31.07
2019-02-05T19:15:09.599Z,28.23
2019-02-05T19:17:43.095Z,29.17
2019-02-05T19:20:18.169Z,26.97
2019-02-05T19:22:51.682Z,25.40
2019-02-05T19:25:27.091Z,27.03
2019-02-05T19:28:00.515Z,27.60
2019-02-05T19:30:35.483Z,30.47
2019-02-05T19:33:08.907Z,26.23
2019-02-05T19:35:42.335Z,29.37
2019-02-05T19:38:15.864Z,31.20
2019-02-05T19:40:57.206Z,26.37
2019-02-05T19:43:24.497Z,34.60
2019-02-05T19:46:08.549Z,34.90
2019-02-05T19:48:58.414Z,37.83
2019-02-05T19:51:31.693Z,35.67
2019-02-05T19:54:05.268Z,32.63
2019-02-05T19:56:38.663Z,37.77
2019-02-05T19:59:12.016Z,35.37
2019-02-05T20:01:45.412Z,40.80
2019-02-05T20:04:18.836Z,34.07
2019-02-05T20:06:52.303Z,36.63
2019-02-05T20:09:25.749Z,40.70
2019-02-05T20:11:59.145Z,31.40
2019-02-05T20:14:32.664Z,39.60
2019-02-05T20:17:06.434Z,34.97
2019-02-05T20:19:39.802Z,30.97
2019-02-05T20:22:13.199Z,36.23
2019-02-05T20:24:46.584Z,32.50
2019-02-05T20:27:19.905Z,32.80
2019-02-05T20:29:53.759Z,37.60
2019-02-05T20:32:28.170Z,43.13
2019-02-05T20:35:01.762Z,42.87
2019-02-05T20:37:35.173Z,35.50
2019-02-05T20:40:14.647Z,36.40
2019-02-05T20:42:48.120Z,48.47
2019-02-05T20:45:21.821Z,34.93
2019-02-05T20:47:56.026Z,36.53
2019-02-05T20:50:29.643Z,36.70
2019-02-05T20:53:13.460Z,34.67
2019-02-05T20:55:38.433Z,45.50
2019-02-05T20:58:11.765Z,43.07
2019-02-05T21:00:45.311Z,37.87
2019-02-05T21:03:18.734Z,52.10
2019-02-05T21:05:52.164Z,54.67
2019-02-05T21:08:25.565Z,43.67
2019-02-05T21:10:58.992Z,34.07
2019-02-05T21:13:32.326Z,33.67
2019-02-05T21:16:06.431Z,42.80
2019-02-05T21:18:39.752Z,33.20
2019-02-05T21:21:13.177Z,35.23
2019-02-05T21:23:46.505Z,43.13
2019-02-05T21:26:19.939Z,33.27
2019-02-05T21:28:53.538Z,34.70
2019-02-05T21:31:26.911Z,37.70
2019-02-05T21:34:02.489Z,42.17
2019-02-05T21:36:35.471Z,36.33
2019-02-05T21:39:09.579Z,35.60
2019-02-05T21:41:42.976Z,42.60
2019-02-05T21:44:16.412Z,34.23
2019-02-05T21:46:49.835Z,35.50
2019-02-05T21:49:23.269Z,36.17
2019-02-05T21:51:56.882Z,44.27
2019-02-05T21:54:30.244Z,35.57
2019-02-05T21:57:03.711Z,42.67
2019-02-05T21:59:37.091Z,37.60
2019-02-05T22:02:10.500Z,30.83
2019-02-05T22:04:44.169Z,42.70
2019-02-05T22:07:18.166Z,30.93
2019-02-05T22:09:51.563Z,30.53
2019-02-05T22:12:24.961Z,42.53
2019-02-05T22:14:58.328Z,32.13
2019-02-05T22:17:32.030Z,33.07
2019-02-05T22:20:11.390Z,41.83
2019-02-05T22:22:45.363Z,48.17
2019-02-05T22:25:24.133Z,40.77
2019-02-05T22:27:57.548Z,51.17
2019-02-05T22:30:36.402Z,31.97
2019-02-05T22:33:09.878Z,38.63
2019-02-05T22:35:43.366Z,35.43
2019-02-05T22:38:16.697Z,36.07
2019-02-05T22:40:50.138Z,39.97
2019-02-05T22:43:23.857Z,52.77
2019-02-05T22:45:57.365Z,38.13
2019-02-05T22:48:31.010Z,38.30
2019-02-05T22:51:04.435Z,29.63
2019-02-05T22:53:38.210Z,34.10
2019-02-05T22:56:11.563Z,36.50
2019-02-05T22:58:45.072Z,29.90
2019-02-05T23:01:27.587Z,33.30
2019-02-05T23:04:05.607Z,29.43
2019-02-05T23:06:43.038Z,31.47
2019-02-05T23:09:22.655Z,40.90
2019-02-05T23:12:01.784Z,38.83
2019-02-05T23:14:35.246Z,32.63
2019-02-05T23:17:09.073Z,50.63
2019-02-05T23:19:42.470Z,28.43
2019-02-05T23:22:15.964Z,28.57
2019-02-05T23:24:49.416Z,43.63
2019-02-05T23:27:22.856Z,34.50
2019-02-05T23:29:56.190Z,30.40
2019-02-05T23:32:29.590Z,30.73
2019-02-05T23:35:02.997Z,45.63
2019-02-05T23:37:36.430Z,31.53
2019-02-05T23:40:11.986Z,46.67
2019-02-05T23:42:45.563Z,29.73
2019-02-05T23:45:19.010Z,29.53
2019-02-05T23:47:52.407Z,29.17
2019-02-05T23:50:26.214Z,34.53
2019-02-05T23:52:59.666Z,27.93
2019-02-05T23:55:33.089Z,28.10
2019-02-05T23:58:06.537Z,26.30
